Time;durP1;ratioP1;P1;durP2;ratioP2;P2;SDS_P1;SDS_P2;PMS_P1;PMS_P2;Temp;Humidity;BMP_temperature;BMP_pressure;BME280_temperature;BME280_humidity;BME280_pressure;Samples;Min_cycle;Max_cycle;Signal;HPM_P1;HPM_P2
2023/06/06 00:00:09;;;;;;;6.50;4.82;;;;;;;;;;5050176;28;20902;-57
2023/06/06 00:02:35;;;;;;;6.68;4.95;;;;;;;;;;5050056;28;20484;-55
2023/06/06 00:05:01;;;;;;;5.22;4.70;;;;;;;;;;5049773;28;20946;-57
2023/06/06 00:07:28;;;;;;;6.43;4.95;;;;;;;;;;5049727;28;20883;-58
2023/06/06 00:09:56;;;;;;;7.03;5.07;;;;;;;;;;5049902;28;20409;-58
2023/06/06 00:12:23;;;;;;;5.35;4.28;;;;;;;;;;5049848;28;20417;-59
2023/06/06 00:14:50;;;;;;;5.35;4.43;;;;;;;;;;5049907;28;20407;-58
2023/06/06 00:17:17;;;;;;;5.75;4.88;;;;;;;;;;5049583;28;20435;-59
2023/06/06 00:19:43;;;;;;;5.63;4.35;;;;;;;;;;5049738;28;20923;-58
2023/06/06 00:22:09;;;;;;;5.25;4.40;;;;;;;;;;5049701;28;20455;-58
2023/06/06 00:24:35;;;;;;;5.17;4.43;;;;;;;;;;5049682;28;20892;-58
2023/06/06 00:27:03;;;;;;;6.32;4.72;;;;;;;;;;5049643;28;20409;-58
2023/06/06 00:29:29;;;;;;;5.68;4.80;;;;;;;;;;5049534;28;20442;-58
2023/06/06 00:31:55;;;;;;;5.78;5.00;;;;;;;;;;5049683;28;20413;-58
2023/06/06 00:34:21;;;;;;;6.07;4.93;;;;;;;;;;5049740;28;20408;-58
2023/06/06 00:36:47;;;;;;;6.82;5.25;;;;;;;;;;5049613;28;20799;-58
2023/06/06 00:39:13;;;;;;;5.85;5.10;;;;;;;;;;5049542;28;20421;-58
2023/06/06 00:41:39;;;;;;;7.15;4.70;;;;;;;;;;5049661;28;20428;-58
2023/06/06 00:44:06;;;;;;;6.07;5.00;;;;;;;;;;5049509;28;20904;-58
2023/06/06 00:46:32;;;;;;;6.88;5.25;;;;;;;;;;5049641;28;20405;-58
2023/06/06 00:48:58;;;;;;;6.85;4.78;;;;;;;;;;5049492;28;20743;-58
2023/06/06 00:51:25;;;;;;;7.97;5.38;;;;;;;;;;5049344;28;20409;-58
2023/06/06 00:53:52;;;;;;;6.78;5.00;;;;;;;;;;5049652;28;21133;-58
2023/06/06 00:56:19;;;;;;;5.90;4.95;;;;;;;;;;5049395;28;20475;-58
2023/06/06 00:58:45;;;;;;;6.20;5.00;;;;;;;;;;5049491;28;20409;-58
2023/06/06 01:01:13;;;;;;;6.47;5.10;;;;;;;;;;5049295;28;20745;-59
2023/06/06 01:03:40;;;;;;;6.50;4.93;;;;;;;;;;5049405;28;20412;-58
2023/06/06 01:06:06;;;;;;;5.97;4.85;;;;;;;;;;5049318;28;20910;-58
2023/06/06 01:08:32;;;;;;;6.63;5.15;;;;;;;;;;5049511;28;20835;-58
2023/06/06 01:11:06;;;;;;;5.88;5.25;;;;;;;;;;5049500;28;20401;-58
2023/06/06 01:13:36;;;;;;;5.90;4.72;;;;;;;;;;5052880;28;20409;-58
2023/06/06 01:16:05;;;;;;;6.32;5.10;;;;;;;;;;5052936;28;20409;-58
2023/06/06 01:18:33;;;;;;;5.20;4.70;;;;;;;;;;5052813;28;20814;-58
2023/06/06 01:20:59;;;;;;;6.10;5.13;;;;;;;;;;5053092;28;20745;-58
2023/06/06 01:23:27;;;;;;;6.03;5.43;;;;;;;;;;5052538;28;20452;-57
2023/06/06 01:25:54;;;;;;;7.25;5.68;;;;;;;;;;5052893;28;20455;-58
2023/06/06 01:28:20;;;;;;;6.00;5.50;;;;;;;;;;5052877;28;20489;-58
2023/06/06 01:30:46;;;;;;;5.97;5.37;;;;;;;;;;5052810;28;20821;-58
2023/06/06 01:33:18;;;;;;;8.13;6.07;;;;;;;;;;5052533;28;20515;-58
2023/06/06 01:35:51;;;;;;;6.97;5.97;;;;;;;;;;5052498;28;20461;-58
2023/06/06 01:38:19;;;;;;;5.70;5.20;;;;;;;;;;5052546;28;20904;-58
2023/06/06 01:40:48;;;;;;;7.07;6.10;;;;;;;;;;5052655;28;20455;-58
2023/06/06 01:43:16;;;;;;;6.30;5.65;;;;;;;;;;5052270;28;20439;-58
2023/06/06 01:45:42;;;;;;;6.72;6.03;;;;;;;;;;5052471;28;20386;-58
2023/06/06 01:48:08;;;;;;;6.30;5.70;;;;;;;;;;5052257;28;20414;-58
2023/06/06 01:50:34;;;;;;;7.25;6.32;;;;;;;;;;5052518;28;20787;-58
2023/06/06 01:53:00;;;;;;;6.95;6.25;;;;;;;;;;5052262;28;20393;-57
2023/06/06 01:55:26;;;;;;;7.65;6.60;;;;;;;;;;5052031;28;20409;-57
2023/06/06 01:57:54;;;;;;;7.47;6.78;;;;;;;;;;5052235;28;20429;-58
2023/06/06 02:00:20;;;;;;;7.78;6.80;;;;;;;;;;5052207;28;20446;-57
2023/06/06 02:02:46;;;;;;;7.63;6.70;;;;;;;;;;5052315;28;20459;-58
2023/06/06 02:05:14;;;;;;;8.63;6.77;;;;;;;;;;5052164;28;20877;-58
2023/06/06 02:07:41;;;;;;;7.60;6.60;;;;;;;;;;5051982;28;20846;-58
2023/06/06 02:10:07;;;;;;;7.00;6.30;;;;;;;;;;5052039;28;20476;-58
2023/06/06 02:12:33;;;;;;;8.23;6.30;;;;;;;;;;5051890;28;20429;-57
2023/06/06 02:15:03;;;;;;;7.47;6.53;;;;;;;;;;5051784;28;20520;-57
2023/06/06 02:17:29;;;;;;;7.75;6.60;;;;;;;;;;5051643;28;20704;-58
2023/06/06 02:19:55;;;;;;;7.05;6.35;;;;;;;;;;5051777;28;20417;-58
2023/06/06 02:22:21;;;;;;;7.07;6.40;;;;;;;;;;5051372;28;20515;-58
2023/06/06 02:24:49;;;;;;;7.38;6.60;;;;;;;;;;5050958;28;20904;-58
2023/06/06 02:27:15;;;;;;;9.18;6.68;;;;;;;;;;5051527;28;20393;-58
2023/06/06 02:29:41;;;;;;;6.82;6.10;;;;;;;;;;5051458;28;20521;-58
2023/06/06 02:32:10;;;;;;;7.20;6.43;;;;;;;;;;5051561;28;20477;-58
2023/06/06 02:34:36;;;;;;;7.80;6.88;;;;;;;;;;5051706;28;20472;-58
2023/06/06 02:37:06;;;;;;;7.85;7.05;;;;;;;;;;5051460;28;20418;-58
2023/06/06 02:39:32;;;;;;;8.88;7.03;;;;;;;;;;5051547;28;20875;-58
2023/06/06 02:41:58;;;;;;;7.38;6.25;;;;;;;;;;5051411;28;20546;-58
2023/06/06 02:44:24;;;;;;;7.75;6.80;;;;;;;;;;5051609;28;20405;-57
2023/06/06 02:46:52;;;;;;;6.97;6.13;;;;;;;;;;5051492;28;20837;-57
2023/06/06 02:49:20;;;;;;;6.90;6.20;;;;;;;;;;5051190;28;20398;-57
2023/06/06 02:51:46;;;;;;;7.47;6.78;;;;;;;;;;5051181;28;20906;-57
2023/06/06 02:54:12;;;;;;;8.27;6.72;;;;;;;;;;5051038;28;20397;-57
2023/06/06 02:56:38;;;;;;;8.60;7.70;;;;;;;;;;5050208;28;20498;-58
2023/06/06 02:59:07;;;;;;;7.15;6.45;;;;;;;;;;5051045;28;20397;-57
2023/06/06 03:01:51;;;;;;;7.40;6.70;;;;;;;;;;5051124;28;20436;-57
2023/06/06 03:04:17;;;;;;;8.77;7.65;;;;;;;;;;5050478;28;20431;-58
2023/06/06 03:06:44;;;;;;;9.83;8.10;;;;;;;;;;5050101;28;20409;-58
2023/06/06 03:09:13;;;;;;;7.95;6.88;;;;;;;;;;5049975;28;20405;-58
2023/06/06 03:11:38;;;;;;;9.02;7.70;;;;;;;;;;5050817;28;20436;-57
2023/06/06 03:14:05;;;;;;;8.10;7.30;;;;;;;;;;5050901;28;20876;-57
2023/06/06 03:16:31;;;;;;;7.63;6.70;;;;;;;;;;5050443;28;21011;-58
2023/06/06 03:18:57;;;;;;;9.30;8.15;;;;;;;;;;5050157;28;20677;-58
2023/06/06 03:21:23;;;;;;;8.38;7.30;;;;;;;;;;5050589;28;20456;-58
2023/06/06 03:23:50;;;;;;;8.80;7.95;;;;;;;;;;5050541;28;20432;-58
2023/06/06 03:26:19;;;;;;;9.85;8.30;;;;;;;;;;5050440;28;20447;-58
2023/06/06 03:28:45;;;;;;;8.73;7.82;;;;;;;;;;5050319;28;20903;-58
2023/06/06 03:31:11;;;;;;;8.52;7.65;;;;;;;;;;5050356;28;20401;-58
2023/06/06 03:33:37;;;;;;;8.23;7.28;;;;;;;;;;5050462;28;20397;-58
2023/06/06 03:36:06;;;;;;;9.32;8.38;;;;;;;;;;5050153;28;20900;-58
2023/06/06 03:38:32;;;;;;;9.82;8.20;;;;;;;;;;5050388;28;20442;-58
2023/06/06 03:40:59;;;;;;;8.82;7.85;;;;;;;;;;5050273;28;20551;-58
2023/06/06 03:43:25;;;;;;;11.05;9.00;;;;;;;;;;5049951;28;20417;-58
2023/06/06 03:45:51;;;;;;;9.57;8.32;;;;;;;;;;5050419;28;20404;-58
2023/06/06 03:48:17;;;;;;;8.98;8.07;;;;;;;;;;5050116;28;20409;-57
2023/06/06 03:50:43;;;;;;;8.90;8.00;;;;;;;;;;5050107;28;20420;-58
2023/06/06 03:53:09;;;;;;;9.68;8.55;;;;;;;;;;5050033;28;20402;-58
2023/06/06 03:55:37;;;;;;;9.20;8.07;;;;;;;;;;5050016;28;20764;-58
2023/06/06 03:58:04;;;;;;;9.93;8.98;;;;;;;;;;5050049;28;20407;-58
2023/06/06 04:00:31;;;;;;;9.77;8.77;;;;;;;;;;5049870;28;20413;-58
2023/06/06 04:02:57;;;;;;;8.90;8.00;;;;;;;;;;5049949;28;20732;-58
2023/06/06 04:05:23;;;;;;;9.32;8.32;;;;;;;;;;5049897;28;20918;-58
2023/06/06 04:07:49;;;;;;;8.80;7.72;;;;;;;;;;5050098;28;20409;-58
2023/06/06 04:10:15;;;;;;;8.60;7.80;;;;;;;;;;5049741;28;20401;-58
2023/06/06 04:12:41;;;;;;;10.25;8.60;;;;;;;;;;5049856;28;20420;-58
2023/06/06 04:15:12;;;;;;;11.45;8.48;;;;;;;;;;5049952;28;20405;-58
2023/06/06 04:17:38;;;;;;;9.10;8.10;;;;;;;;;;5049881;28;20766;-58
2023/06/06 04:20:05;;;;;;;8.90;8.00;;;;;;;;;;5049927;28;20459;-58
2023/06/06 04:22:31;;;;;;;9.82;8.50;;;;;;;;;;5049674;28;20504;-58
2023/06/06 04:24:57;;;;;;;9.63;8.63;;;;;;;;;;5049640;28;20425;-59
2023/06/06 04:27:23;;;;;;;9.18;8.27;;;;;;;;;;5049645;28;20406;-58
2023/06/06 04:29:51;;;;;;;9.20;8.20;;;;;;;;;;5049923;28;20397;-58
2023/06/06 04:32:21;;;;;;;10.98;8.90;;;;;;;;;;5049557;28;20433;-58
2023/06/06 04:34:51;;;;;;;8.80;7.65;;;;;;;;;;5049654;28;20398;-58
2023/06/06 04:37:17;;;;;;;8.85;7.70;;;;;;;;;;5049480;28;20466;-58
2023/06/06 04:39:44;;;;;;;10.48;8.40;;;;;;;;;;5049627;28;20432;-58
2023/06/06 04:42:12;;;;;;;9.07;8.15;;;;;;;;;;5049485;28;20947;-58
2023/06/06 04:44:46;;;;;;;8.50;7.60;;;;;;;;;;5049498;28;20415;-58
2023/06/06 04:47:12;;;;;;;9.93;8.82;;;;;;;;;;5051528;28;20421;-58
2023/06/06 04:49:40;;;;;;;9.88;8.68;;;;;;;;;;5053650;28;20405;-59
2023/06/06 04:52:07;;;;;;;9.48;8.50;;;;;;;;;;5053637;28;20451;-58
2023/06/06 04:54:33;;;;;;;9.52;8.57;;;;;;;;;;5053364;28;20417;-58
2023/06/06 04:57:00;;;;;;;8.43;7.63;;;;;;;;;;5053184;28;20425;-58
2023/06/06 04:59:27;;;;;;;8.10;7.30;;;;;;;;;;5052994;28;20404;-58
2023/06/06 05:01:55;;;;;;;8.18;7.47;;;;;;;;;;5053305;28;20407;-58
2023/06/06 05:04:21;;;;;;;10.02;8.48;;;;;;;;;;5053410;28;20441;-59
2023/06/06 05:06:48;;;;;;;9.43;7.82;;;;;;;;;;5053185;28;20390;-58
2023/06/06 05:09:14;;;;;;;9.75;8.75;;;;;;;;;;5053035;28;20405;-58
2023/06/06 05:11:45;;;;;;;9.57;8.25;;;;;;;;;;5052787;28;20428;-58
2023/06/06 05:14:11;;;;;;;8.50;7.47;;;;;;;;;;5052621;28;20404;-58
2023/06/06 05:16:37;;;;;;;8.45;7.63;;;;;;;;;;5053028;28;20425;-59
2023/06/06 05:19:03;;;;;;;8.90;8.00;;;;;;;;;;5052851;28;20416;-58
2023/06/06 05:21:30;;;;;;;10.07;7.85;;;;;;;;;;5052487;28;20407;-58
2023/06/06 05:23:58;;;;;;;9.50;7.90;;;;;;;;;;5052496;28;20471;-58
2023/06/06 05:26:25;;;;;;;8.75;7.85;;;;;;;;;;5052529;28;20404;-58
2023/06/06 05:28:51;;;;;;;8.48;7.32;;;;;;;;;;5052772;28;20420;-59
2023/06/06 05:31:20;;;;;;;11.30;8.82;;;;;;;;;;5052315;28;20896;-58
2023/06/06 05:33:47;;;;;;;8.35;7.53;;;;;;;;;;5052267;28;20966;-58
2023/06/06 05:36:13;;;;;;;8.43;7.47;;;;;;;;;;5052095;28;20436;-58
2023/06/06 05:38:39;;;;;;;8.15;7.32;;;;;;;;;;5052378;28;20758;-58
2023/06/06 05:41:06;;;;;;;8.90;7.37;;;;;;;;;;5052513;28;20473;-58
2023/06/06 05:43:33;;;;;;;9.68;8.35;;;;;;;;;;5052342;28;20451;-58
2023/06/06 05:46:00;;;;;;;8.93;7.30;;;;;;;;;;5052354;28;20495;-58
2023/06/06 05:48:26;;;;;;;9.20;7.10;;;;;;;;;;5052245;28;20938;-58
2023/06/06 05:50:52;;;;;;;9.25;7.72;;;;;;;;;;5052402;28;20870;-58
2023/06/06 05:53:18;;;;;;;8.02;7.22;;;;;;;;;;5052279;28;20892;-58
2023/06/06 05:55:45;;;;;;;7.90;7.10;;;;;;;;;;5052193;28;20488;-58
2023/06/06 05:58:12;;;;;;;8.30;7.22;;;;;;;;;;5051926;28;20413;-58
2023/06/06 06:00:38;;;;;;;9.38;7.68;;;;;;;;;;5052378;28;20401;-58
2023/06/06 06:03:05;;;;;;;9.75;7.97;;;;;;;;;;5052203;28;20938;-58
2023/06/06 06:05:32;;;;;;;8.10;7.22;;;;;;;;;;5051847;28;20406;-58
2023/06/06 06:08:01;;;;;;;8.40;6.77;;;;;;;;;;5053193;28;20734;-58
2023/06/06 06:10:27;;;;;;;8.40;6.80;;;;;;;;;;5052963;28;20218;-59
2023/06/06 06:12:53;;;;;;;7.87;6.27;;;;;;;;;;5052986;28;20273;-58
2023/06/06 06:15:20;;;;;;;8.33;6.40;;;;;;;;;;5053129;28;20209;-59
2023/06/06 06:17:46;;;;;;;7.23;6.27;;;;;;;;;;5052995;28;20305;-58
2023/06/06 06:20:13;;;;;;;7.17;6.47;;;;;;;;;;5052640;28;20681;-58
2023/06/06 06:22:39;;;;;;;7.83;6.20;;;;;;;;;;5052313;28;20200;-59
2023/06/06 06:25:08;;;;;;;7.10;6.10;;;;;;;;;;5052826;28;20238;-58
2023/06/06 06:27:35;;;;;;;8.43;5.53;;;;;;;;;;5052753;28;20200;-58
2023/06/06 06:30:02;;;;;;;6.70;6.10;;;;;;;;;;5052808;28;20202;-58
2023/06/06 06:32:29;;;;;;;7.80;5.80;;;;;;;;;;5052585;28;20251;-58
2023/06/06 06:34:55;;;;;;;6.70;5.70;;;;;;;;;;5052612;28;20206;-58
2023/06/06 06:37:21;;;;;;;7.47;6.37;;;;;;;;;;5052626;28;20303;-58
2023/06/06 06:39:49;;;;;;;6.83;6.17;;;;;;;;;;5052650;28;20203;-58
2023/06/06 06:42:15;;;;;;;6.83;6.07;;;;;;;;;;5052393;28;20206;-59
2023/06/06 06:44:40;;;;;;;7.87;6.10;;;;;;;;;;5052445;28;20199;-58
2023/06/06 06:47:06;;;;;;;7.20;6.03;;;;;;;;;;5052536;28;20208;-58
2023/06/06 06:49:34;;;;;;;7.00;6.40;;;;;;;;;;5052260;28;20199;-58
2023/06/06 06:52:00;;;;;;;6.87;5.93;;;;;;;;;;5052415;28;20204;-58
2023/06/06 06:54:26;;;;;;;6.93;6.13;;;;;;;;;;5052242;28;20675;-57
2023/06/06 06:56:53;;;;;;;8.20;6.23;;;;;;;;;;5052497;28;20323;-58
2023/06/06 06:59:23;;;;;;;6.57;5.67;;;;;;;;;;5052191;28;20199;-57
2023/06/06 07:01:49;;;;;;;5.93;5.30;;;;;;;;;;5052306;28;20689;-58
2023/06/06 07:04:16;;;;;;;8.23;5.73;;;;;;;;;;5051951;28;20317;-58
2023/06/06 07:06:44;;;;;;;6.80;6.00;;;;;;;;;;5052191;28;20204;-58
2023/06/06 07:09:11;;;;;;;6.73;6.03;;;;;;;;;;5051378;28;20204;-58
2023/06/06 07:11:37;;;;;;;6.80;5.53;;;;;;;;;;5051747;28;20208;-58
2023/06/06 07:14:04;;;;;;;7.03;5.63;;;;;;;;;;5051912;28;20198;-57
2023/06/06 07:16:31;;;;;;;7.43;5.77;;;;;;;;;;5051490;28;20228;-56
2023/06/06 07:18:57;;;;;;;7.60;5.70;;;;;;;;;;5051610;28;20203;-56
2023/06/06 07:21:25;;;;;;;5.77;4.90;;;;;;;;;;5051629;28;20201;-56
2023/06/06 07:23:52;;;;;;;7.23;5.10;;;;;;;;;;5051754;28;20734;-56
2023/06/06 07:26:19;;;;;;;5.67;4.93;;;;;;;;;;5051568;28;20193;-55
2023/06/06 07:28:46;;;;;;;5.00;4.50;;;;;;;;;;5051623;28;20254;-56
2023/06/06 07:31:12;;;;;;;5.10;4.10;;;;;;;;;;5051508;28;20277;-60
2023/06/06 07:33:38;;;;;;;5.90;4.20;;;;;;;;;;5051467;28;20203;-60
2023/06/06 07:36:05;;;;;;;5.05;4.35;;;;;;;;;;5050335;28;20837;-59
2023/06/06 07:38:31;;;;;;;4.82;3.95;;;;;;;;;;5050123;28;20417;-58
2023/06/06 07:40:58;;;;;;;4.50;3.93;;;;;;;;;;5051372;28;20196;-57
2023/06/06 07:43:24;;;;;;;5.80;4.35;;;;;;;;;;5049987;28;20409;-57
2023/06/06 07:45:50;;;;;;;6.28;3.88;;;;;;;;;;5050030;28;20407;-57
2023/06/06 07:48:16;;;;;;;5.75;4.15;;;;;;;;;;5049962;28;20451;-54
2023/06/06 07:50:42;;;;;;;5.40;4.10;;;;;;;;;;5049600;28;20412;-54
2023/06/06 07:53:10;;;;;;;5.40;3.53;;;;;;;;;;5049898;28;20811;-53
2023/06/06 07:55:37;;;;;;;3.90;3.50;;;;;;;;;;5050022;28;20408;-54
2023/06/06 07:58:10;;;;;;;4.00;3.60;;;;;;;;;;5049946;28;20413;-53
2023/06/06 08:00:36;;;;;;;5.85;3.78;;;;;;;;;;5049962;28;20681;-55
2023/06/06 08:03:02;;;;;;;5.20;3.43;;;;;;;;;;5051271;28;20214;-55
2023/06/06 08:05:28;;;;;;;4.57;3.50;;;;;;;;;;5050898;28;20800;-55
2023/06/06 08:07:54;;;;;;;4.00;3.20;;;;;;;;;;5051079;28;20203;-55
2023/06/06 08:10:20;;;;;;;5.20;3.17;;;;;;;;;;5051121;28;20207;-55
2023/06/06 08:12:46;;;;;;;6.37;3.63;;;;;;;;;;5050824;28;20615;-55
2023/06/06 08:15:14;;;;;;;5.83;3.57;;;;;;;;;;5050916;28;20282;-55
2023/06/06 08:17:40;;;;;;;3.60;3.07;;;;;;;;;;5050767;28;20223;-55
2023/06/06 08:20:08;;;;;;;3.43;2.73;;;;;;;;;;5051010;28;20574;-55
2023/06/06 08:22:37;;;;;;;6.23;2.80;;;;;;;;;;5053854;28;20215;-55
2023/06/06 08:25:04;;;;;;;5.37;3.40;;;;;;;;;;5054848;28;20719;-55
2023/06/06 08:27:31;;;;;;;3.70;2.80;;;;;;;;;;5054739;28;20742;-53
2023/06/06 08:29:56;;;;;;;3.20;2.90;;;;;;;;;;5055011;28;20597;-53
2023/06/06 08:32:25;;;;;;;4.83;3.23;;;;;;;;;;5054823;28;20233;-53
2023/06/06 08:34:52;;;;;;;3.10;2.80;;;;;;;;;;5054978;28;20205;-53
2023/06/06 08:37:17;;;;;;;4.43;3.10;;;;;;;;;;5054779;28;20227;-54
2023/06/06 08:39:44;;;;;;;3.40;3.10;;;;;;;;;;5054890;28;20749;-56
2023/06/06 08:42:11;;;;;;;6.00;2.87;;;;;;;;;;5054441;28;20566;-54
2023/06/06 08:44:38;;;;;;;3.80;2.40;;;;;;;;;;5054688;28;20543;-54
2023/06/06 08:47:05;;;;;;;3.70;2.87;;;;;;;;;;5054716;28;20198;-54
2023/06/06 08:49:33;;;;;;;3.77;2.40;;;;;;;;;;5054683;28;20942;-54
2023/06/06 08:52:01;;;;;;;3.17;2.87;;;;;;;;;;5054567;28;20205;-54
2023/06/06 08:54:27;;;;;;;3.13;2.47;;;;;;;;;;5054375;28;20521;-54
2023/06/06 08:56:54;;;;;;;3.40;2.67;;;;;;;;;;5054219;28;20268;-54
2023/06/06 08:59:20;;;;;;;3.40;2.53;;;;;;;;;;5054316;28;20587;-54
2023/06/06 09:01:48;;;;;;;3.23;2.33;;;;;;;;;;5054276;28;20288;-54
2023/06/06 09:04:15;;;;;;;2.80;2.30;;;;;;;;;;5054171;28;20527;-54
2023/06/06 09:06:45;;;;;;;5.70;2.77;;;;;;;;;;5054118;28;20195;-55
2023/06/06 09:09:11;;;;;;;3.10;2.30;;;;;;;;;;5053975;28;20760;-54
2023/06/06 09:11:38;;;;;;;4.23;2.70;;;;;;;;;;5054197;28;20226;-54
2023/06/06 09:14:05;;;;;;;4.53;2.60;;;;;;;;;;5054448;28;20266;-54
2023/06/06 09:16:31;;;;;;;32.27;6.97;;;;;;;;;;5053929;28;20254;-54
2023/06/06 09:18:57;;;;;;;4.07;2.47;;;;;;;;;;5053990;28;20233;-54
2023/06/06 09:21:28;;;;;;;3.07;2.20;;;;;;;;;;5053884;28;20199;-55
2023/06/06 09:23:55;;;;;;;3.20;2.50;;;;;;;;;;5052624;28;20413;-55
2023/06/06 09:26:22;;;;;;;3.33;2.50;;;;;;;;;;5054029;28;20207;-55
2023/06/06 09:28:49;;;;;;;3.23;2.30;;;;;;;;;;5054152;28;20207;-55
2023/06/06 09:31:22;;;;;;;6.97;2.30;;;;;;;;;;5053829;28;20341;-55
2023/06/06 09:33:48;;;;;;;4.70;2.20;;;;;;;;;;5053432;28;20275;-55
2023/06/06 09:36:14;;;;;;;2.77;2.30;;;;;;;;;;5053751;28;20610;-55
2023/06/06 09:38:40;;;;;;;3.97;2.20;;;;;;;;;;5053611;28;20192;-55
2023/06/06 09:41:08;;;;;;;3.07;2.10;;;;;;;;;;5053787;28;20275;-55
2023/06/06 09:43:37;;;;;;;2.87;2.20;;;;;;;;;;5053617;28;20204;-55
2023/06/06 09:46:05;;;;;;;3.13;2.40;;;;;;;;;;5053744;28;20211;-56
2023/06/06 09:48:32;;;;;;;2.67;2.40;;;;;;;;;;5053362;28;20635;-54
2023/06/06 09:50:58;;;;;;;3.07;2.10;;;;;;;;;;5053534;28;20212;-54
2023/06/06 09:53:24;;;;;;;4.50;2.30;;;;;;;;;;5053335;28;20192;-53
2023/06/06 09:55:51;;;;;;;4.17;2.27;;;;;;;;;;5053664;28;20252;-54
2023/06/06 09:58:20;;;;;;;2.70;2.20;;;;;;;;;;5053206;28;20222;-52
2023/06/06 10:00:50;;;;;;;2.63;2.20;;;;;;;;;;5053493;28;20201;-54
2023/06/06 10:03:20;;;;;;;4.10;2.13;;;;;;;;;;5053256;28;20205;-54
2023/06/06 10:05:46;;;;;;;4.03;2.20;;;;;;;;;;5053303;28;20226;-54
2023/06/06 10:08:13;;;;;;;2.37;2.17;;;;;;;;;;5053119;28;20407;-55
2023/06/06 10:10:39;;;;;;;3.23;2.40;;;;;;;;;;5052968;28;20676;-55
2023/06/06 10:13:06;;;;;;;3.77;2.43;;;;;;;;;;5053280;28;20199;-54
2023/06/06 10:15:34;;;;;;;4.17;2.40;;;;;;;;;;5052944;28;20752;-53
2023/06/06 10:18:00;;;;;;;2.50;2.10;;;;;;;;;;5052844;28;20218;-53
2023/06/06 10:20:27;;;;;;;5.47;2.13;;;;;;;;;;5052747;28;20226;-54
2023/06/06 10:22:52;;;;;;;2.83;2.03;;;;;;;;;;5052968;28;20195;-56
2023/06/06 10:25:19;;;;;;;2.60;2.10;;;;;;;;;;5052549;28;20233;-56
2023/06/06 10:27:49;;;;;;;3.97;2.23;;;;;;;;;;5052832;28;20293;-56
2023/06/06 10:30:23;;;;;;;31.13;5.17;;;;;;;;;;5052649;28;20606;-56
2023/06/06 10:33:00;;;;;;;4.93;2.50;;;;;;;;;;5052894;28;20206;-56
2023/06/06 10:35:26;;;;;;;4.03;2.23;;;;;;;;;;5052623;28;20213;-56
2023/06/06 10:38:02;;;;;;;2.90;2.30;;;;;;;;;;5052493;28;20227;-56
2023/06/06 10:40:39;;;;;;;3.20;2.50;;;;;;;;;;5052444;28;20245;-56
2023/06/06 10:43:05;;;;;;;3.67;2.03;;;;;;;;;;5052484;28;20570;-56
2023/06/06 10:45:40;;;;;;;5.43;2.80;;;;;;;;;;5051415;28;20243;-55
2023/06/06 10:48:08;;;;;;;3.40;2.27;;;;;;;;;;5052651;28;20201;-56
2023/06/06 10:50:34;;;;;;;4.77;2.37;;;;;;;;;;5052233;28;20204;-56
2023/06/06 10:53:06;;;;;;;3.33;2.50;;;;;;;;;;5052300;28;20225;-55
2023/06/06 10:55:53;;;;;;;3.30;2.50;;;;;;;;;;5052493;28;20196;-56
2023/06/06 10:58:26;;;;;;;4.37;2.60;;;;;;;;;;5047134;28;20238;-56
2023/06/06 11:00:57;;;;;;;3.07;2.70;;;;;;;;;;5052328;28;20244;-55
2023/06/06 11:03:33;;;;;;;4.73;2.20;;;;;;;;;;5052103;28;20626;-55
2023/06/06 11:06:06;;;;;;;2.47;2.27;;;;;;;;;;5052009;28;20443;-55
2023/06/06 11:08:33;;;;;;;2.30;2.10;;;;;;;;;;5051961;28;20260;-55
2023/06/06 11:11:14;;;;;;;3.87;2.57;;;;;;;;;;5051844;28;20565;-55
2023/06/06 11:13:48;;;;;;;2.73;2.43;;;;;;;;;;5051966;28;20208;-55
2023/06/06 11:16:14;;;;;;;2.47;2.10;;;;;;;;;;5051791;28;20204;-55
2023/06/06 11:18:42;;;;;;;3.73;2.20;;;;;;;;;;5051674;28;20201;-55
2023/06/06 11:21:08;;;;;;;2.93;2.10;;;;;;;;;;5051835;28;20203;-56
2023/06/06 11:23:39;;;;;;;3.10;2.30;;;;;;;;;;5051821;28;20266;-56
2023/06/06 11:26:09;;;;;;;5.90;2.30;;;;;;;;;;5051907;28;20200;-55
2023/06/06 11:28:35;;;;;;;2.60;2.37;;;;;;;;;;5051606;28;20294;-56
2023/06/06 11:31:02;;;;;;;3.23;2.47;;;;;;;;;;5051691;28;20453;-55
2023/06/06 11:33:28;;;;;;;2.73;2.37;;;;;;;;;;5051293;28;20203;-55
2023/06/06 11:35:56;;;;;;;4.50;2.30;;;;;;;;;;5051512;28;20202;-54
2023/06/06 11:38:22;;;;;;;2.97;2.20;;;;;;;;;;5051525;28;20230;-55
2023/06/06 11:40:48;;;;;;;3.33;2.30;;;;;;;;;;5051467;28;20279;-55
2023/06/06 11:43:14;;;;;;;3.77;2.10;;;;;;;;;;5051412;28;20754;-57
2023/06/06 11:45:40;;;;;;;2.80;2.13;;;;;;;;;;5051247;28;20207;-55
2023/06/06 11:48:20;;;;;;;5.63;2.23;;;;;;;;;;5051923;28;20193;-55
2023/06/06 11:50:46;;;;;;;3.00;2.07;;;;;;;;;;5051425;28;20203;-55
2023/06/06 11:53:28;;;;;;;2.60;2.40;;;;;;;;;;5051282;28;20255;-54
2023/06/06 11:55:54;;;;;;;3.63;2.40;;;;;;;;;;5051097;28;20213;-55
2023/06/06 11:58:20;;;;;;;2.40;2.20;;;;;;;;;;5051180;28;20314;-55
2023/06/06 12:00:46;;;;;;;3.50;2.13;;;;;;;;;;5051206;28;20214;-55
2023/06/06 12:03:14;;;;;;;3.37;2.43;;;;;;;;;;5051519;28;20222;-55
2023/06/06 12:05:41;;;;;;;5.37;2.50;;;;;;;;;;5050856;28;20227;-55
2023/06/06 12:08:07;;;;;;;5.70;2.60;;;;;;;;;;5051369;28;20217;-55
2023/06/06 12:10:34;;;;;;;3.27;2.63;;;;;;;;;;5050565;28;20722;-55
2023/06/06 12:13:00;;;;;;;3.47;2.33;;;;;;;;;;5050930;28;20232;-55
2023/06/06 12:15:41;;;;;;;2.80;2.00;;;;;;;;;;5050797;28;20197;-55
2023/06/06 12:18:07;;;;;;;4.63;2.43;;;;;;;;;;5050804;28;20229;-55
2023/06/06 12:20:33;;;;;;;4.57;2.47;;;;;;;;;;5050855;28;20220;-55
2023/06/06 12:22:59;;;;;;;2.57;2.13;;;;;;;;;;5050920;28;20220;-55
2023/06/06 12:25:26;;;;;;;3.00;2.30;;;;;;;;;;5050683;28;20244;-56
2023/06/06 12:27:53;;;;;;;3.20;2.13;;;;;;;;;;5051062;28;20198;-56
2023/06/06 12:30:28;;;;;;;3.63;2.60;;;;;;;;;;5050997;28;20285;-56
2023/06/06 12:32:54;;;;;;;2.47;2.13;;;;;;;;;;5050962;28;20266;-56
2023/06/06 12:35:21;;;;;;;5.10;2.30;;;;;;;;;;5051091;28;20660;-55
2023/06/06 12:37:47;;;;;;;5.57;2.83;;;;;;;;;;5050691;28;20231;-56
2023/06/06 12:40:14;;;;;;;4.60;2.53;;;;;;;;;;5050733;28;20743;-55
2023/06/06 12:42:40;;;;;;;3.43;2.50;;;;;;;;;;5050659;28;20287;-56
2023/06/06 12:45:09;;;;;;;4.03;2.40;;;;;;;;;;5050795;28;20665;-55
2023/06/06 12:47:35;;;;;;;2.97;2.33;;;;;;;;;;5050825;28;20200;-55
2023/06/06 12:50:02;;;;;;;3.43;2.03;;;;;;;;;;5050712;28;20315;-55
2023/06/06 12:52:28;;;;;;;4.53;2.50;;;;;;;;;;5050541;28;20197;-55
2023/06/06 12:54:54;;;;;;;4.20;2.50;;;;;;;;;;5050741;28;20212;-55
2023/06/06 12:57:20;;;;;;;5.20;2.50;;;;;;;;;;5050885;28;20307;-55
2023/06/06 12:59:46;;;;;;;3.30;2.40;;;;;;;;;;5050510;28;20250;-55
2023/06/06 13:02:13;;;;;;;3.50;2.43;;;;;;;;;;5050648;28;20205;-55
2023/06/06 13:04:40;;;;;;;2.90;2.30;;;;;;;;;;5050370;28;20688;-55
2023/06/06 13:07:06;;;;;;;5.70;2.83;;;;;;;;;;5051169;28;20272;-55
2023/06/06 13:09:33;;;;;;;4.13;2.50;;;;;;;;;;5054477;28;20279;-55
2023/06/06 13:11:59;;;;;;;3.73;2.60;;;;;;;;;;5054386;28;20608;-56
2023/06/06 13:14:26;;;;;;;3.83;2.50;;;;;;;;;;5054190;28;20208;-56
2023/06/06 13:16:52;;;;;;;3.27;2.60;;;;;;;;;;5054254;28;20255;-56
2023/06/06 13:19:20;;;;;;;4.57;2.40;;;;;;;;;;5054135;28;20561;-56
2023/06/06 13:21:46;;;;;;;2.40;2.17;;;;;;;;;;5053973;28;20211;-56
2023/06/06 13:24:17;;;;;;;3.43;2.70;;;;;;;;;;5053729;28;20226;-56
2023/06/06 13:26:43;;;;;;;2.60;2.13;;;;;;;;;;5053790;28;20736;-55
2023/06/06 13:29:09;;;;;;;2.63;2.43;;;;;;;;;;5053872;28;20208;-56
2023/06/06 13:31:37;;;;;;;3.10;2.57;;;;;;;;;;5053812;28;20574;-56
2023/06/06 13:34:03;;;;;;;3.97;2.57;;;;;;;;;;5053999;28;20226;-56
2023/06/06 13:36:30;;;;;;;3.07;2.33;;;;;;;;;;5053656;28;20240;-54
2023/06/06 13:38:56;;;;;;;3.93;2.70;;;;;;;;;;5054037;28;20212;-56
2023/06/06 13:41:22;;;;;;;3.17;2.00;;;;;;;;;;5053817;28;20205;-56
2023/06/06 13:43:48;;;;;;;3.30;2.23;;;;;;;;;;5053906;28;20195;-54
2023/06/06 13:46:14;;;;;;;2.70;2.50;;;;;;;;;;5053697;28;20641;-55
2023/06/06 13:48:40;;;;;;;3.07;2.70;;;;;;;;;;5053467;28;20205;-55
2023/06/06 13:51:06;;;;;;;5.13;2.70;;;;;;;;;;5053739;28;20196;-54
2023/06/06 13:53:34;;;;;;;3.13;2.30;;;;;;;;;;5053500;28;20574;-55
2023/06/06 13:56:00;;;;;;;2.87;2.40;;;;;;;;;;5053247;28;20607;-52
2023/06/06 13:58:31;;;;;;;5.13;2.70;;;;;;;;;;5053030;28;20224;-53
2023/06/06 14:00:57;;;;;;;4.10;2.33;;;;;;;;;;5053249;28;20621;-53
2023/06/06 14:03:23;;;;;;;3.80;2.07;;;;;;;;;;5053061;28;20197;-54
2023/06/06 14:05:49;;;;;;;3.43;2.40;;;;;;;;;;5052995;28;20253;-52
2023/06/06 14:08:15;;;;;;;4.87;2.57;;;;;;;;;;5052872;28;20229;-52
2023/06/06 14:10:43;;;;;;;3.23;2.37;;;;;;;;;;5053127;28;20220;-52
2023/06/06 14:13:09;;;;;;;2.90;2.50;;;;;;;;;;5053280;28;20204;-52
2023/06/06 14:15:35;;;;;;;3.33;2.40;;;;;;;;;;5053106;28;20256;-52
2023/06/06 14:18:01;;;;;;;3.57;2.20;;;;;;;;;;5052905;28;20257;-52
2023/06/06 14:20:36;;;;;;;2.93;2.37;;;;;;;;;;5052858;28;20254;-52
2023/06/06 14:23:02;;;;;;;2.87;2.53;;;;;;;;;;5053017;28;20209;-52
2023/06/06 14:25:28;;;;;;;3.20;2.30;;;;;;;;;;5052674;28;20243;-52
2023/06/06 14:27:55;;;;;;;2.73;2.30;;;;;;;;;;5052838;28;20195;-52
2023/06/06 14:30:21;;;;;;;2.47;2.27;;;;;;;;;;5052894;28;20676;-52
2023/06/06 14:32:47;;;;;;;2.67;2.40;;;;;;;;;;5052657;28;20207;-52
2023/06/06 14:35:13;;;;;;;3.17;2.30;;;;;;;;;;5052572;28;20206;-52
2023/06/06 14:37:39;;;;;;;5.57;2.57;;;;;;;;;;5052401;28;20613;-52
2023/06/06 14:40:07;;;;;;;3.17;2.60;;;;;;;;;;5051275;28;20207;-52
2023/06/06 14:42:33;;;;;;;3.77;2.60;;;;;;;;;;5052473;28;20198;-52